Time;durP1;ratioP1;P1;durP2;ratioP2;P2;SDS_P1;SDS_P2;PMS_P1;PMS_P2;Temp;Humidity;BMP_temperature;BMP_pressure;BME280_temperature;BME280_humidity;BME280_pressure;Samples;Min_cycle;Max_cycle;Signal;HPM_P1;HPM_P2
2022/05/14 00:01:09;;;;;;;5.23;3.70;;;11.50;99.90;;;;;;5075472;28;20302;-64
2022/05/14 00:03:38;;;;;;;5.53;3.70;;;11.50;99.90;;;;;;5075185;28;20736;-63
2022/05/14 00:06:08;;;;;;;7.03;3.77;;;11.50;99.90;;;;;;5074951;28;20315;-64
2022/05/14 00:08:35;;;;;;;8.90;4.10;;;11.50;99.90;;;;;;5075183;28;20235;-63
2022/05/14 00:13:46;;;;;;;6.03;3.83;;;11.30;99.90;;;;;;5075082;28;20276;-64
2022/05/14 00:16:15;;;;;;;4.57;3.70;;;11.30;99.90;;;;;;5074620;28;20678;-64
2022/05/14 00:18:43;;;;;;;6.93;3.67;;;11.30;1.00;;;;;;5075156;28;20629;-64
2022/05/14 00:21:11;;;;;;;13.80;3.50;;;11.30;1.00;;;;;;5074125;28;20231;-63
2022/05/14 00:23:37;;;;;;;13.30;3.90;;;11.20;1.00;;;;;;5074681;28;20732;-62
2022/05/14 00:26:05;;;;;;;11.17;4.30;;;11.20;1.00;;;;;;5074197;28;20760;-65
2022/05/14 00:28:32;;;;;;;13.77;3.80;;;11.10;1.00;;;;;;5074773;28;20625;-62
2022/05/14 00:30:59;;;;;;;9.30;4.10;;;11.10;1.00;;;;;;5074373;28;20242;-61
2022/05/14 00:33:25;;;;;;;9.77;4.53;;;11.10;1.00;;;;;;5074566;28;20676;-62
2022/05/14 00:35:53;;;;;;;8.23;4.63;;;11.10;1.00;;;;;;5073339;28;20208;-62
2022/05/14 00:38:20;;;;;;;8.60;4.30;;;11.10;1.00;;;;;;5074286;28;20272;-62
2022/05/14 00:40:54;;;;;;;8.10;4.43;;;11.10;1.00;;;;;;5074594;28;20289;-62
2022/05/14 00:43:22;;;;;;;7.83;4.03;;;11.10;1.00;;;;;;5074591;28;20204;-61
2022/05/14 00:45:53;;;;;;;6.27;3.67;;;11.00;1.00;;;;;;5074530;28;20225;-62
2022/05/14 00:48:20;;;;;;;8.97;4.47;;;10.90;1.00;;;;;;5074243;28;20255;-62
2022/05/14 00:50:50;;;;;;;8.33;5.60;;;10.80;1.00;;;;;;5074481;28;20284;-62
2022/05/14 00:53:22;;;;;;;12.40;5.20;;;10.70;1.00;;;;;;5074616;28;20211;-63
2022/05/14 00:55:52;;;;;;;8.63;4.93;;;10.70;24.00;;;;;;5074295;28;20208;-63
2022/05/14 00:58:30;;;;;;;11.23;4.97;;;10.60;91.40;;;;;;5074352;28;20281;-62
2022/05/14 01:00:57;;;;;;;9.77;4.93;;;10.70;99.90;;;;;;5074022;28;20232;-62
2022/05/14 01:03:24;;;;;;;11.30;5.43;;;10.70;99.90;;;;;;5074430;28;20265;-62
2022/05/14 01:05:51;;;;;;;13.43;6.00;;;10.70;99.90;;;;;;5073391;28;20224;-61
2022/05/14 01:08:20;;;;;;;12.80;5.97;;;10.60;99.90;;;;;;5074243;28;20266;-62
2022/05/14 01:10:48;;;;;;;11.37;5.63;;;10.60;99.90;;;;;;5073854;28;20227;-63
2022/05/14 01:13:15;;;;;;;13.20;5.57;;;10.60;99.90;;;;;;5073821;28;20262;-62
2022/05/14 01:15:47;;;;;;;9.70;6.00;;;10.50;99.90;;;;;;5073192;28;20210;-62
2022/05/14 01:18:14;;;;;;;13.30;5.50;;;10.50;99.90;;;;;;5073710;28;20215;-61
2022/05/14 01:20:42;;;;;;;10.93;6.03;;;10.50;99.90;;;;;;5073732;28;20205;-62
2022/05/14 01:23:27;;;;;;;12.13;5.43;;;10.50;99.90;;;;;;5073612;28;20652;-62
2022/05/14 01:26:29;;;;;;;7.80;5.20;;;10.50;99.90;;;;;;5073438;28;20221;-62
2022/05/14 01:28:58;;;;;;;17.70;6.00;;;10.50;99.90;;;;;;5073438;28;20203;-61
2022/05/14 01:31:25;;;;;;;16.03;5.50;;;10.50;99.90;;;;;;5073926;28;20228;-62
2022/05/14 01:33:52;;;;;;;10.70;6.13;;;10.50;99.90;;;;;;5073141;28;20216;-62
2022/05/14 01:36:18;;;;;;;13.80;6.57;;;10.50;99.90;;;;;;5073201;28;20638;-62
2022/05/14 01:38:45;;;;;;;15.93;6.47;;;10.50;99.90;;;;;;5073568;28;20216;-61
2022/05/14 01:41:13;;;;;;;12.37;6.07;;;10.50;99.90;;;;;;5073460;28;20256;-62
2022/05/14 01:43:40;;;;;;;16.60;6.83;;;10.50;99.90;;;;;;5073443;28;20277;-62
2022/05/14 01:46:08;;;;;;;14.57;7.13;;;10.40;99.90;;;;;;5073879;28;20227;-62
2022/05/14 01:48:34;;;;;;;13.37;7.30;;;10.50;99.90;;;;;;5073367;28;20255;-61
2022/05/14 01:51:01;;;;;;;11.33;6.87;;;10.40;99.90;;;;;;5072743;28;20230;-61
2022/05/14 01:53:28;;;;;;;15.17;6.77;;;10.40;99.90;;;;;;5073822;28;20565;-62
2022/05/14 01:55:55;;;;;;;11.57;6.63;;;10.40;99.90;;;;;;5072897;28;20203;-62
2022/05/14 01:58:38;;;;;;;14.67;6.37;;;10.40;99.90;;;;;;5073074;28;20209;-62
2022/05/14 02:01:10;;;;;;;16.53;7.13;;;10.40;99.90;;;;;;5072932;28;20322;-61
2022/05/14 02:03:37;;;;;;;13.30;6.23;;;10.40;99.90;;;;;;5073811;28;20249;-61
2022/05/14 02:06:05;;;;;;;13.60;6.23;;;10.40;99.90;;;;;;5072275;28;20230;-62
2022/05/14 02:08:32;;;;;;;14.07;7.00;;;10.40;99.90;;;;;;5073323;28;20255;-62
2022/05/14 02:10:59;;;;;;;12.90;6.63;;;10.30;99.90;;;;;;5073223;28;20702;-63
2022/05/14 02:13:27;;;;;;;12.33;6.30;;;10.30;99.90;;;;;;5073024;28;20208;-62
2022/05/14 02:15:54;;;;;;;10.90;6.53;;;10.30;99.90;;;;;;5072787;28;20211;-63
2022/05/14 02:18:21;;;;;;;12.50;6.87;;;10.20;99.90;;;;;;5071785;28;20212;-63
2022/05/14 02:20:48;;;;;;;8.93;6.03;;;10.20;99.90;;;;;;5072806;28;20285;-63
2022/05/14 02:23:16;;;;;;;14.23;6.93;;;10.20;99.90;;;;;;5072696;28;20202;-63
2022/05/14 02:25:43;;;;;;;12.00;6.17;;;10.20;99.90;;;;;;5072263;28;20695;-63
2022/05/14 02:28:11;;;;;;;14.30;7.13;;;10.20;99.90;;;;;;5072025;28;20206;-63
2022/05/14 02:30:39;;;;;;;9.37;5.90;;;10.10;99.90;;;;;;5072306;28;20979;-63
2022/05/14 02:33:06;;;;;;;13.47;7.57;;;10.10;99.90;;;;;;5072545;28;20222;-62
2022/05/14 02:35:33;;;;;;;16.07;7.03;;;10.10;99.90;;;;;;5072289;28;20674;-63
2022/05/14 02:38:00;;;;;;;13.77;7.43;;;10.10;99.90;;;;;;5072485;28;20203;-63
2022/05/14 02:40:27;;;;;;;16.67;7.37;;;10.20;99.90;;;;;;5072263;28;20606;-63
2022/05/14 02:42:54;;;;;;;12.57;7.30;;;10.10;99.90;;;;;;5072076;28;20658;-64
2022/05/14 02:45:21;;;;;;;13.17;7.27;;;10.20;99.90;;;;;;5072271;28;20235;-63
2022/05/14 02:47:54;;;;;;;15.07;6.87;;;10.20;99.90;;;;;;5072305;28;20278;-64
2022/05/14 02:50:35;;;;;;;16.27;6.87;;;10.20;99.90;;;;;;5072447;28;20218;-63
2022/05/14 02:53:02;;;;;;;11.80;6.37;;;10.30;99.90;;;;;;5072277;28;20302;-64
2022/05/14 02:55:29;;;;;;;14.00;6.07;;;10.20;99.90;;;;;;5072235;28;20198;-63
2022/05/14 02:57:56;;;;;;;8.97;6.00;;;10.30;99.90;;;;;;5071611;28;20211;-63
2022/05/14 03:00:23;;;;;;;12.40;5.87;;;10.30;99.90;;;;;;5072415;28;20260;-63
2022/05/14 03:02:52;;;;;;;13.60;6.00;;;10.20;99.90;;;;;;5071840;28;20676;-63
2022/05/14 03:05:21;;;;;;;13.37;6.70;;;10.20;99.90;;;;;;5071950;28;20290;-62
2022/05/14 03:07:48;;;;;;;12.00;6.00;;;10.20;99.90;;;;;;5071382;28;20207;-63
2022/05/14 03:10:16;;;;;;;12.50;6.00;;;10.20;99.90;;;;;;5072260;28;20217;-64
2022/05/14 03:12:43;;;;;;;12.30;6.07;;;10.20;99.90;;;;;;5071603;28;20271;-63
2022/05/14 03:15:12;;;;;;;12.37;5.53;;;10.20;99.90;;;;;;5071718;28;20203;-64
2022/05/14 03:17:39;;;;;;;10.07;4.83;;;10.20;99.90;;;;;;5071608;28;20260;-64
2022/05/14 03:20:10;;;;;;;9.83;5.77;;;10.20;99.90;;;;;;5071704;28;20210;-64
2022/05/14 03:22:39;;;;;;;7.97;4.70;;;10.20;99.90;;;;;;5071700;28;20226;-63
2022/05/14 03:25:08;;;;;;;9.30;5.20;;;10.20;99.90;;;;;;5071692;28;20618;-63
2022/05/14 03:27:34;;;;;;;15.57;5.33;;;10.10;99.90;;;;;;5071777;28;20204;-64
2022/05/14 03:30:01;;;;;;;9.77;5.13;;;10.10;99.90;;;;;;5071795;28;20207;-62
2022/05/14 03:32:28;;;;;;;9.00;5.00;;;10.10;99.90;;;;;;5072390;28;20225;-65
2022/05/14 03:34:55;;;;;;;11.40;4.77;;;10.10;99.90;;;;;;5072565;28;20252;-63
2022/05/14 03:37:24;;;;;;;10.10;5.40;;;10.10;99.90;;;;;;5071119;28;20647;-63
2022/05/14 03:39:50;;;;;;;9.23;4.93;;;10.10;99.90;;;;;;5071663;28;20686;-64
2022/05/14 03:42:17;;;;;;;13.17;4.13;;;10.10;99.90;;;;;;5071524;28;20246;-64
2022/05/14 03:44:44;;;;;;;9.73;4.23;;;10.10;99.90;;;;;;5071707;28;20212;-64
2022/05/14 03:47:10;;;;;;;8.33;4.40;;;10.10;99.90;;;;;;5071004;28;20771;-64
2022/05/14 03:49:37;;;;;;;9.20;4.10;;;10.10;99.90;;;;;;5071537;28;20256;-64
2022/05/14 03:52:04;;;;;;;9.73;4.37;;;10.10;99.90;;;;;;5071425;28;20228;-63
2022/05/14 03:54:32;;;;;;;8.07;3.77;;;10.10;99.90;;;;;;5071752;28;20206;-63
2022/05/14 03:56:59;;;;;;;12.20;4.83;;;10.10;99.90;;;;;;5071187;28;20201;-64
2022/05/14 03:59:26;;;;;;;7.77;4.23;;;10.10;99.90;;;;;;5071506;28;20205;-63
2022/05/14 04:01:52;;;;;;;8.03;4.17;;;10.00;99.90;;;;;;5071293;28;20230;-64
2022/05/14 04:04:19;;;;;;;6.87;4.07;;;10.00;99.90;;;;;;5071147;28;20619;-63
2022/05/14 04:06:46;;;;;;;8.63;4.00;;;9.90;99.90;;;;;;5070976;28;20281;-63
2022/05/14 04:09:12;;;;;;;8.60;4.00;;;9.90;99.90;;;;;;5071126;28;20210;-64
2022/05/14 04:11:41;;;;;;;6.10;3.63;;;9.90;99.90;;;;;;5070997;28;20283;-64
2022/05/14 04:14:07;;;;;;;8.63;3.90;;;9.90;99.90;;;;;;5071109;28;20206;-64
2022/05/14 04:16:34;;;;;;;9.33;3.37;;;9.90;99.90;;;;;;5070450;28;20210;-63
2022/05/14 04:19:01;;;;;;;8.63;3.70;;;10.00;99.90;;;;;;5071218;28;20274;-63
2022/05/14 04:21:27;;;;;;;7.20;3.13;;;10.00;99.90;;;;;;5071225;28;20231;-64
2022/05/14 04:23:54;;;;;;;6.67;3.00;;;10.10;99.90;;;;;;5071138;28;20210;-62
2022/05/14 04:26:24;;;;;;;6.20;3.63;;;10.10;99.90;;;;;;5070564;28;20604;-63
2022/05/14 04:28:52;;;;;;;8.43;3.40;;;10.10;99.90;;;;;;5071003;28;20252;-63
2022/05/14 04:31:21;;;;;;;6.63;3.60;;;10.10;99.90;;;;;;5070439;28;20727;-63
2022/05/14 04:33:47;;;;;;;5.90;3.17;;;10.10;99.90;;;;;;5071419;28;20614;-64
2022/05/14 04:36:14;;;;;;;4.60;2.73;;;10.00;99.90;;;;;;5070861;28;20669;-64
2022/05/14 04:38:41;;;;;;;7.93;2.97;;;10.00;99.90;;;;;;5071006;28;20628;-64
2022/05/14 04:41:08;;;;;;;5.87;2.93;;;10.00;99.90;;;;;;5072771;28;20226;-64
2022/05/14 04:43:35;;;;;;;6.63;3.17;;;10.00;99.90;;;;;;5074643;28;20203;-62
2022/05/14 04:46:06;;;;;;;6.10;2.87;;;10.00;99.90;;;;;;5074275;28;20694;-63
2022/05/14 04:48:34;;;;;;;4.40;2.80;;;10.10;99.90;;;;;;5074820;28;20207;-63
2022/05/14 04:51:01;;;;;;;11.33;3.33;;;10.10;99.90;;;;;;5074657;28;20235;-62
2022/05/14 04:53:28;;;;;;;4.93;2.83;;;10.20;99.90;;;;;;5074756;28;20204;-63
2022/05/14 04:55:54;;;;;;;9.23;3.27;;;10.20;99.90;;;;;;5073742;28;20199;-63
2022/05/14 04:58:21;;;;;;;5.33;2.57;;;10.30;99.70;;;;;;5074334;28;20231;-64
2022/05/14 05:00:48;;;;;;;6.30;2.80;;;10.30;95.80;;;;;;5074164;28;20227;-63
2022/05/14 05:03:19;;;;;;;7.93;3.03;;;10.40;91.90;;;;;;5074866;28;20272;-63
2022/05/14 05:05:47;;;;;;;3.80;2.60;;;10.40;89.40;;;;;;5074204;28;20230;-64
2022/05/14 05:08:14;;;;;;;5.77;2.53;;;10.50;88.70;;;;;;5074008;28;20281;-64
2022/05/14 05:10:41;;;;;;;9.13;2.70;;;10.60;81.30;;;;;;5073881;28;20206;-63
2022/05/14 05:13:13;;;;;;;8.17;2.80;;;10.70;78.90;;;;;;5074569;28;20201;-64
2022/05/14 05:15:40;;;;;;;5.50;2.83;;;10.80;68.70;;;;;;5074082;28;20222;-63
2022/05/14 05:18:08;;;;;;;7.03;2.90;;;10.80;45.30;;;;;;5074030;28;20261;-63
2022/05/14 05:20:39;;;;;;;5.70;2.63;;;10.90;38.70;;;;;;5074044;28;20258;-64
2022/05/14 05:23:06;;;;;;;4.13;2.53;;;11.00;39.90;;;;;;5073916;28;20206;-63
2022/05/14 05:25:35;;;;;;;5.23;2.70;;;11.10;34.80;;;;;;5073189;28;20624;-64
2022/05/14 05:28:02;;;;;;;7.40;2.67;;;11.10;22.50;;;;;;5073147;28;20216;-63
2022/05/14 05:30:29;;;;;;;10.03;2.90;;;11.20;19.00;;;;;;5073887;28;20279;-63
2022/05/14 05:32:56;;;;;;;5.27;2.43;;;11.30;12.90;;;;;;5073754;28;20208;-64
2022/05/14 05:35:23;;;;;;;6.93;2.53;;;11.40;8.50;;;;;;5073770;28;20213;-63
2022/05/14 05:37:51;;;;;;;6.10;3.00;;;11.50;1.00;;;;;;5072803;28;20563;-63
2022/05/14 05:40:19;;;;;;;8.60;2.93;;;11.60;1.00;;;;;;5073580;28;20212;-63
2022/05/14 05:42:46;;;;;;;5.97;2.67;;;11.70;1.00;;;;;;5073661;28;20282;-64
2022/05/14 05:45:15;;;;;;;6.93;3.30;;;11.70;1.00;;;;;;5073493;28;20265;-64
2022/05/14 05:47:42;;;;;;;4.87;2.73;;;11.80;1.00;;;;;;5073195;28;20238;-63
2022/05/14 05:50:10;;;;;;;8.30;3.00;;;11.80;1.00;;;;;;5073052;28;20209;-64
2022/05/14 05:52:36;;;;;;;5.60;2.87;;;11.90;1.00;;;;;;5072748;28;20278;-63
2022/05/14 05:58:05;;;;;;;7.43;2.80;;;12.00;1.00;;;;;;5010702;28;20696;-63
2022/05/14 06:00:32;;;;;;;11.13;3.23;;;12.20;1.00;;;;;;5011026;28;20628;-64
2022/05/14 06:03:00;;;;;;;9.33;2.97;;;12.20;1.00;;;;;;5038051;28;20200;-63
2022/05/14 06:05:27;;;;;;;8.37;3.67;;;12.30;1.00;;;;;;5072797;28;20300;-63
2022/05/14 06:07:54;;;;;;;6.73;3.43;;;12.30;1.00;;;;;;5073134;28;20228;-63
2022/05/14 06:10:24;;;;;;;7.40;3.50;;;12.30;1.00;;;;;;5073087;28;20215;-66
2022/05/14 06:12:51;;;;;;;8.37;3.30;;;12.40;1.00;;;;;;5072841;28;20274;-64
2022/05/14 06:15:20;;;;;;;9.17;3.73;;;12.40;1.00;;;;;;5072735;28;20205;-64
2022/05/14 06:17:47;;;;;;;7.90;4.00;;;12.50;1.00;;;;;;5072421;28;20205;-63
2022/05/14 06:20:16;;;;;;;10.57;3.63;;;12.50;1.00;;;;;;5072929;28;20263;-63
2022/05/14 06:22:42;;;;;;;9.57;3.90;;;12.60;1.00;;;;;;5072774;28;20225;-63
2022/05/14 06:25:10;;;;;;;8.13;3.60;;;12.70;1.00;;;;;;5072881;28;20208;-61
2022/05/14 06:27:38;;;;;;;6.43;3.23;;;12.80;1.00;;;;;;5072094;28;20280;-63
2022/05/14 06:30:06;;;;;;;7.77;3.90;;;12.80;1.00;;;;;;5072675;28;20261;-64
2022/05/14 06:32:33;;;;;;;9.80;3.60;;;12.80;1.00;;;;;;5073031;28;20225;-64
2022/05/14 06:34:59;;;;;;;11.17;3.60;;;12.80;1.00;;;;;;5072693;28;20617;-63
2022/05/14 06:37:26;;;;;;;7.57;3.27;;;12.80;1.00;;;;;;5072200;28;20232;-63
2022/05/14 06:39:53;;;;;;;5.73;3.73;;;12.90;1.00;;;;;;5072219;28;20559;-63
2022/05/14 06:42:19;;;;;;;11.73;3.57;;;12.80;99.90;;;;;;5071961;28;20287;-61
2022/05/14 06:44:48;;;;;;;6.87;3.27;;;12.90;99.90;;;;;;5071535;28;20205;-64
2022/05/14 06:47:14;;;;;;;5.93;3.23;;;13.00;1.00;;;;;;5061379;28;20275;-63
2022/05/14 06:49:41;;;;;;;9.60;3.70;;;13.00;99.90;;;;;;5071667;28;20251;-64
2022/05/14 06:52:12;;;;;;;10.40;4.20;;;13.20;14.60;;;;;;5071602;28;20225;-63
2022/05/14 06:54:40;;;;;;;7.27;3.80;;;13.30;1.00;;;;;;5071936;28;20213;-63
2022/05/14 06:57:07;;;;;;;8.30;4.17;;;13.40;99.90;;;;;;5071204;28;20256;-64
2022/05/14 06:59:35;;;;;;;13.43;3.93;;;13.50;99.90;;;;;;5071795;28;20210;-64
2022/05/14 07:02:04;;;;;;;8.97;3.37;;;13.40;99.90;;;;;;5071537;28;20225;-64
2022/05/14 07:07:17;;;;;;;10.27;4.80;;;13.80;18.30;;;;;;5071163;28;20827;-63
2022/05/14 07:09:44;;;;;;;8.83;4.83;;;14.00;99.90;;;;;;5071248;28;20665;-64
2022/05/14 07:12:12;;;;;;;8.70;4.33;;;14.00;24.20;;;;;;5071652;28;20298;-63
2022/05/14 07:14:40;;;;;;;7.10;4.47;;;14.10;1.00;;;;;;5071376;28;20208;-63
2022/05/14 07:17:09;;;;;;;11.70;4.63;;;14.20;1.00;;;;;;5071055;28;20631;-63
2022/05/14 07:19:36;;;;;;;11.63;4.67;;;14.30;1.00;;;;;;5071231;28;20634;-63
2022/05/14 07:22:03;;;;;;;11.97;4.83;;;14.40;1.00;;;;;;5071255;28;20322;-62
2022/05/14 07:24:31;;;;;;;12.53;4.13;;;14.50;1.00;;;;;;5071578;28;20212;-63
2022/05/14 07:27:00;;;;;;;12.90;4.60;;;14.70;1.00;;;;;;5070923;28;20719;-64
2022/05/14 07:29:29;;;;;;;9.77;4.13;;;14.80;1.00;;;;;;5071261;28;20239;-62
2022/05/14 07:31:56;;;;;;;10.37;4.63;;;14.90;99.90;;;;;;5071293;28;20282;-64
2022/05/14 07:34:24;;;;;;;9.40;4.57;;;14.90;99.90;;;;;;5071535;28;20319;-64
2022/05/14 07:36:54;;;;;;;13.10;4.50;;;15.20;99.90;;;;;;5070612;28;20201;-63
2022/05/14 07:39:23;;;;;;;10.47;3.73;;;15.40;99.90;;;;;;5071558;28;20208;-65
2022/05/14 07:41:53;;;;;;;10.03;4.00;;;15.50;99.90;;;;;;5071292;28;20274;-64
2022/05/14 07:44:24;;;;;;;12.73;4.10;;;15.60;99.90;;;;;;5071304;28;20671;-65
2022/05/14 07:46:50;;;;;;;9.57;4.13;;;15.70;99.90;;;;;;5070619;28;20217;-65
2022/05/14 07:49:19;;;;;;;8.63;3.90;;;15.80;99.90;;;;;;5070586;28;20287;-65
2022/05/14 07:51:47;;;;;;;11.37;4.10;;;15.90;99.90;;;;;;5071275;28;20623;-66
2022/05/14 07:54:14;;;;;;;10.07;3.70;;;16.00;99.90;;;;;;5071534;28;20624;-64
2022/05/14 07:56:42;;;;;;;7.27;3.67;;;16.10;99.90;;;;;;5071296;28;20247;-64
2022/05/14 07:59:09;;;;;;;11.40;3.57;;;16.20;99.90;;;;;;5071244;28;20205;-64
2022/05/14 08:01:36;;;;;;;11.03;3.43;;;16.30;99.90;;;;;;5070799;28;20224;-64
2022/05/14 08:04:03;;;;;;;9.73;3.93;;;16.50;99.90;;;;;;5071095;28;20216;-65
2022/05/14 08:06:29;;;;;;;9.63;3.30;;;16.40;99.90;;;;;;5070575;28;20205;-64
2022/05/14 08:08:57;;;;;;;10.33;3.37;;;16.30;99.90;;;;;;5070882;28;20205;-64
2022/05/14 08:11:26;;;;;;;8.37;3.77;;;16.50;99.90;;;;;;5070713;28;20596;-65
2022/05/14 08:13:54;;;;;;;9.47;3.57;;;16.60;99.90;;;;;;5071065;28;20296;-65
2022/05/14 08:16:20;;;;;;;8.90;3.80;;;16.80;99.90;;;;;;5072377;28;20468;-62
2022/05/14 08:18:47;;;;;;;7.30;3.27;;;16.70;99.90;;;;;;5074435;28;20624;-62
2022/05/14 08:26:44;;;;;;;8.73;3.20;;;16.90;99.90;;;;;;5073736;28;20682;-62
2022/05/14 08:29:11;;;;;;;8.60;3.60;;;17.10;99.90;;;;;;5074454;28;20205;-65
2022/05/14 08:31:38;;;;;;;8.57;3.77;;;16.90;99.90;;;;;;5074620;28;20601;-65
2022/05/14 08:34:04;;;;;;;8.27;3.30;;;17.10;99.90;;;;;;5075020;28;20213;-63
2022/05/14 08:36:32;;;;;;;6.80;2.87;;;17.30;99.90;;;;;;5074198;28;20201;-64
2022/05/14 08:39:00;;;;;;;12.53;4.10;;;17.60;99.90;;;;;;5074007;28;20576;-62
2022/05/14 08:41:27;;;;;;;9.37;4.07;;;17.60;99.90;;;;;;5074117;28;20768;-63
2022/05/14 08:43:59;;;;;;;6.60;3.33;;;17.80;99.90;;;;;;5074427;28;20239;-65
2022/05/14 08:46:27;;;;;;;8.90;3.60;;;17.80;99.90;;;;;;5073970;28;20251;-64
2022/05/14 08:48:57;;;;;;;7.13;3.27;;;17.80;99.90;;;;;;5073523;28;20229;-64
2022/05/14 08:51:28;;;;;;;8.17;3.53;;;18.00;99.90;;;;;;5073981;28;20229;-63
2022/05/14 08:53:54;;;;;;;6.40;3.17;;;18.10;99.90;;;;;;5073129;28;20211;-62
2022/05/14 08:56:36;;;;;;;11.07;3.93;;;18.20;99.90;;;;;;5074052;28;20629;-62
2022/05/14 08:59:44;;;;;;;13.10;4.37;;;18.20;99.90;;;;;;5073652;28;20252;-62
2022/05/14 09:02:16;;;;;;;8.67;3.13;;;18.20;99.90;;;;;;5011602;28;20775;-61
2022/05/14 09:04:44;;;;;;;7.77;3.63;;;18.40;99.90;;;;;;5065757;28;20213;-62
2022/05/14 09:07:12;;;;;;;8.53;3.87;;;18.40;99.90;;;;;;5073069;28;20220;-62
2022/05/14 09:09:51;;;;;;;8.10;3.27;;;18.40;99.90;;;;;;5073425;28;20204;-64
2022/05/14 09:12:24;;;;;;;8.17;4.07;;;18.60;99.90;;;;;;5073757;28;20233;-62
2022/05/14 09:14:54;;;;;;;13.57;3.37;;;18.70;99.90;;;;;;5073574;28;20189;-65
2022/05/14 09:17:23;;;;;;;11.67;3.67;;;18.90;99.90;;;;;;5073068;28;20680;-62
2022/05/14 09:19:52;;;;;;;9.10;3.63;;;18.90;99.90;;;;;;5073711;28;20212;-62
2022/05/14 09:22:28;;;;;;;12.10;4.10;;;18.90;99.90;;;;;;5073466;28;20232;-62
2022/05/14 09:25:03;;;;;;;10.63;3.40;;;19.00;99.90;;;;;;5073306;28;20733;-63
2022/05/14 09:27:37;;;;;;;9.57;3.33;;;19.00;99.90;;;;;;5072472;28;20726;-63
2022/05/14 09:30:08;;;;;;;11.03;3.53;;;19.10;99.90;;;;;;5073440;28;20212;-64
2022/05/14 09:32:41;;;;;;;10.83;3.80;;;19.10;99.90;;;;;;5073211;28;20270;-64
2022/05/14 09:35:13;;;;;;;9.37;3.20;;;19.20;99.90;;;;;;5073154;28;20291;-63
2022/05/14 09:37:41;;;;;;;9.53;2.73;;;19.40;99.90;;;;;;5072238;28;20534;-63
2022/05/14 09:40:13;;;;;;;5.87;2.60;;;19.60;99.90;;;;;;5073220;28;20690;-64
2022/05/14 09:42:45;;;;;;;8.93;3.03;;;19.80;99.90;;;;;;5073422;28;20229;-62
2022/05/14 09:45:29;;;;;;;7.73;2.63;;;19.70;99.90;;;;;;5073118;28;20709;-63
2022/05/14 09:47:56;;;;;;;8.70;2.50;;;19.40;99.90;;;;;;5072274;28;20243;-63
2022/05/14 09:50:30;;;;;;;8.83;2.57;;;19.70;99.90;;;;;;5072941;28;20266;-63
2022/05/14 09:53:00;;;;;;;7.00;2.37;;;19.80;99.90;;;;;;5072830;28;20207;-63
2022/05/14 09:55:57;;;;;;;7.13;2.80;;;19.60;99.90;;;;;;5072680;28;20209;-63
2022/05/14 09:58:36;;;;;;;8.70;2.77;;;19.60;99.90;;;;;;5072453;28;20197;-64
2022/05/14 10:01:08;;;;;;;5.23;2.50;;;19.60;99.90;;;;;;5072654;28;20366;-63
2022/05/14 10:03:52;;;;;;;11.17;2.87;;;19.60;99.90;;;;;;5072922;28;20201;-63
2022/05/14 10:06:27;;;;;;;7.30;2.30;;;19.60;99.90;;;;;;5072772;28;20211;-63
2022/05/14 10:09:06;;;;;;;9.70;2.67;;;19.70;99.90;;;;;;5072422;28;20568;-63
2022/05/14 10:11:35;;;;;;;8.30;3.07;;;19.90;99.90;;;;;;5072694;28;20221;-63
2022/05/14 10:14:14;;;;;;;13.70;2.63;;;19.60;99.90;;;;;;5072458;28;20258;-64
2022/05/14 10:16:51;;;;;;;8.73;2.70;;;19.70;99.90;;;;;;5071884;28;20228;-62
2022/05/14 10:19:31;;;;;;;8.30;2.73;;;19.90;99.90;;;;;;5072297;28;20208;-64
2022/05/14 10:22:05;;;;;;;8.93;2.20;;;20.10;99.90;;;;;;5072423;28;20225;-64
2022/05/14 10:27:58;;;;;;;8.80;2.67;;;20.40;99.90;;;;;;5071341;28;20223;-63
2022/05/14 10:30:30;;;;;;;9.83;2.90;;;20.50;99.90;;;;;;5072092;28;20209;-63
2022/05/14 10:33:01;;;;;;;7.07;2.77;;;20.00;99.90;;;;;;5072158;28;20819;-64
2022/05/14 10:35:31;;;;;;;9.87;2.87;;;19.90;99.90;;;;;;5071756;28;20208;-63
2022/05/14 10:38:02;;;;;;;9.53;3.07;;;19.80;99.90;;;;;;5070146;28;20208;-63
2022/05/14 10:40:33;;;;;;;11.70;2.70;;;19.60;99.90;;;;;;5071535;28;20668;-62
2022/05/14 10:43:11;;;;;;;9.07;2.70;;;19.60;99.90;;;;;;5071597;28;20204;-63
2022/05/14 10:45:42;;;;;;;9.90;3.00;;;19.90;99.90;;;;;;5072037;28;20266;-63
2022/05/14 10:48:17;;;;;;;8.93;2.47;;;20.10;99.90;;;;;;5070975;28;20695;-63
2022/05/14 10:50:44;;;;;;;9.27;3.00;;;20.60;99.90;;;;;;5071713;28;20212;-63
2022/05/14 10:53:13;;;;;;;10.60;2.73;;;20.80;99.90;;;;;;5071313;28;20209;-63
2022/05/14 10:55:49;;;;;;;7.63;2.50;;;20.90;99.90;;;;;;5071381;28;20251;-64
2022/05/14 10:58:35;;;;;;;7.67;2.37;;;20.90;99.90;;;;;;5070940;28;20811;-62
2022/05/14 11:01:04;;;;;;;4.73;2.27;;;20.90;99.90;;;;;;5071309;28;20229;-63
2022/05/14 11:03:36;;;;;;;7.07;2.80;;;21.20;99.90;;;;;;5071584;28;20258;-63
2022/05/14 11:06:14;;;;;;;10.33;3.00;;;21.40;99.90;;;;;;5071335;28;20212;-64
2022/05/14 11:08:44;;;;;;;6.37;3.20;;;21.40;99.90;;;;;;5071356;28;20243;-63
2022/05/14 11:11:16;;;;;;;5.67;2.50;;;21.30;99.90;;;;;;5071258;28;20221;-63
2022/05/14 11:13:54;;;;;;;10.30;3.07;;;21.10;99.90;;;;;;5071768;28;20205;-63
2022/05/14 11:16:22;;;;;;;12.23;3.30;;;21.00;99.90;;;;;;5070996;28;20274;-65
2022/05/14 11:18:52;;;;;;;8.00;2.93;;;21.20;99.90;;;;;;5071801;28;20197;-64
2022/05/14 11:21:22;;;;;;;6.10;2.67;;;21.00;99.90;;;;;;5071919;28;20278;-64
2022/05/14 11:23:56;;;;;;;8.73;3.20;;;20.70;99.90;;;;;;5071734;28;20578;-65
2022/05/14 11:26:25;;;;;;;11.47;3.60;;;20.80;99.90;;;;;;5071322;28;20752;-64
2022/05/14 11:28:59;;;;;;;13.27;3.63;;;20.80;99.90;;;;;;5071101;28;20278;-69
2022/05/14 11:31:29;;;;;;;13.03;3.83;;;20.60;99.90;;;;;;5071329;28;20225;-63
2022/05/14 11:33:59;;;;;;;8.27;3.03;;;20.80;99.90;;;;;;5071342;28;20213;-66
2022/05/14 11:36:46;;;;;;;12.63;3.10;;;21.00;99.90;;;;;;5071188;28;20216;-64
2022/05/14 11:39:26;;;;;;;13.07;3.23;;;21.30;99.90;;;;;;5071038;28;20205;-64
2022/05/14 11:41:55;;;;;;;7.37;2.90;;;21.00;99.90;;;;;;5071445;28;20231;-66
2022/05/14 11:44:30;;;;;;;7.43;2.97;;;20.90;99.90;;;;;;5071224;28;20204;-64
2022/05/14 11:47:00;;;;;;;7.60;2.53;;;20.90;99.90;;;;;;5071141;28;20212;-65
2022/05/14 11:49:31;;;;;;;9.47;2.60;;;20.90;99.90;;;;;;5071779;28;20224;-64
2022/05/14 11:52:08;;;;;;;10.73;3.47;;;21.20;99.90;;;;;;5075345;28;20224;-63
2022/05/14 11:54:38;;;;;;;10.80;3.03;;;21.60;99.90;;;;;;5075493;28;20306;-63
2022/05/14 11:57:11;;;;;;;8.43;2.67;;;21.10;99.90;;;;;;5074643;28;20270;-63
2022/05/14 11:59:41;;;;;;;8.63;2.47;;;20.80;99.90;;;;;;5075167;28;20205;-63
2022/05/14 12:02:16;;;;;;;7.27;2.90;;;21.20;99.90;;;;;;5074917;28;20232;-62
2022/05/14 12:04:46;;;;;;;10.83;3.50;;;21.50;99.90;;;;;;5075320;28;20208;-64
2022/05/14 12:07:38;;;;;;;10.13;3.40;;;21.50;99.90;;;;;;5074805;28;20209;-62
2022/05/14 12:10:19;;;;;;;7.87;3.30;;;21.30;99.90;;;;;;5067964;28;20220;-63
2022/05/14 12:12:55;;;;;;;13.03;3.20;;;21.50;99.90;;;;;;5074899;28;20285;-62
2022/05/14 12:15:24;;;;;;;9.00;3.73;;;21.70;99.90;;;;;;5074607;28;20225;-63
2022/05/14 12:17:54;;;;;;;5.83;3.23;;;21.90;99.90;;;;;;5074401;28;20227;-63
2022/05/14 12:20:23;;;;;;;9.87;4.27;;;21.90;99.90;;;;;;5076230;28;20213;-64
2022/05/14 12:22:55;;;;;;;9.17;3.70;;;21.50;99.90;;;;;;5079960;28;20243;-64
2022/05/14 12:25:33;;;;;;;11.80;3.90;;;21.20;99.90;;;;;;5079781;28;20212;-62
2022/05/14 12:28:00;;;;;;;9.73;4.23;;;21.20;99.90;;;;;;5078151;28;20208;-63
2022/05/14 12:33:18;;;;;;;11.40;4.17;;;20.90;99.90;;;;;;5074583;28;20203;-63
2022/05/14 12:35:53;;;;;;;7.90;3.70;;;21.00;99.90;;;;;;5074509;28;20212;-63
2022/05/14 12:38:26;;;;;;;10.83;4.33;;;21.40;99.90;;;;;;5074107;28;20196;-63
2022/05/14 12:40:53;;;;;;;10.00;4.63;;;21.80;99.90;;;;;;5074073;28;20229;-63
2022/05/14 12:43:20;;;;;;;12.10;4.30;;;21.50;99.90;;;;;;5074480;28;20291;-63
2022/05/14 12:45:59;;;;;;;11.73;4.73;;;21.20;99.90;;;;;;5074254;28;20208;-62
2022/05/14 12:48:27;;;;;;;7.37;4.23;;;21.50;99.90;;;;;;5074006;28;20221;-63
2022/05/14 12:50:56;;;;;;;8.07;3.63;;;21.50;99.90;;;;;;5073933;28;20229;-64
2022/05/14 12:53:34;;;;;;;9.33;3.77;;;21.70;99.90;;;;;;5074041;28;20278;-64
2022/05/14 12:56:01;;;;;;;10.63;3.80;;;21.60;99.90;;;;;;5073746;28;20213;-63
2022/05/14 12:58:30;;;;;;;7.03;3.93;;;21.90;99.90;;;;;;5073811;28;20267;-63
2022/05/14 13:00:57;;;;;;;8.77;4.10;;;21.80;99.90;;;;;;5072983;28;20225;-63
2022/05/14 13:03:31;;;;;;;6.70;3.60;;;21.70;99.90;;;;;;5073820;28;20282;-64
2022/05/14 13:06:03;;;;;;;13.47;4.30;;;22.00;99.90;;;;;;5073252;28;20290;-62
2022/05/14 13:08:30;;;;;;;9.37;3.60;;;22.30;99.90;;;;;;5072632;28;20313;-63
2022/05/14 13:11:00;;;;;;;5.00;3.43;;;22.20;99.90;;;;;;5073218;28;20229;-63
2022/05/14 13:13:34;;;;;;;9.47;4.23;;;22.20;99.90;;;;;;5073809;28;20213;-63
2022/05/14 13:16:01;;;;;;;11.03;3.90;;;22.10;99.90;;;;;;5073319;28;20216;-63
2022/05/14 13:18:33;;;;;;;9.73;4.03;;;22.00;99.90;;;;;;5072970;28;20557;-63